createdAt,value
2024-04-22T00:00:06.310Z,98607.63
2024-04-22T00:02:37.648Z,98609.75
2024-04-22T00:05:11.675Z,98603.31
2024-04-22T00:07:39.931Z,98600.66
2024-04-22T00:10:10.863Z,98595.91
2024-04-22T00:12:38.678Z,98593.88
2024-04-22T00:15:12.673Z,98594.56
2024-04-22T00:17:40.660Z,98598.31
2024-04-22T00:20:12.859Z,98600.44
2024-04-22T00:22:40.978Z,98596.44
2024-04-22T00:25:12.643Z,98591.22
2024-04-22T00:27:42.240Z,98597.91
2024-04-22T00:30:18.667Z,98591.16
2024-04-22T00:32:47.102Z,98594.75
2024-04-22T00:35:18.189Z,98592.94
2024-04-22T00:37:48.520Z,98603.59
2024-04-22T00:40:19.232Z,98595.28
2024-04-22T00:42:51.785Z,98600.19
2024-04-22T00:45:25.264Z,98596.88
2024-04-22T00:47:55.151Z,98599.16
2024-04-22T00:50:26.376Z,98593.19
2024-04-22T00:52:55.690Z,98600.81
2024-04-22T00:55:27.834Z,98597.81
2024-04-22T00:57:58.228Z,98600.53
2024-04-22T01:00:35.954Z,98589.13
2024-04-22T01:03:05.033Z,98595.50
2024-04-22T01:05:40.859Z,98591.34
2024-04-22T01:08:10.978Z,98596.63
2024-04-22T01:10:41.680Z,98598.97
2024-04-22T01:13:09.694Z,98596.16
2024-04-22T01:15:43.692Z,98602.44
2024-04-22T01:18:18.520Z,98593.97
2024-04-22T01:20:51.477Z,98601.91
2024-04-22T01:23:22.429Z,98596.88
2024-04-22T01:25:56.860Z,98592.56
2024-04-22T01:28:25.537Z,98591.06
2024-04-22T01:30:56.587Z,98595.25
2024-04-22T01:33:24.968Z,98584.22
2024-04-22T01:35:56.354Z,98593.63
2024-04-22T01:38:27.455Z,98584.94
2024-04-22T01:41:03.438Z,98596.41
2024-04-22T01:43:32.063Z,98592.25
2024-04-22T01:46:07.300Z,98596.41
2024-04-22T01:48:35.237Z,98588.66
2024-04-22T01:51:06.029Z,98589.75
2024-04-22T01:53:44.004Z,98587.56
2024-04-22T01:56:14.614Z,98587.88
2024-04-22T01:58:45.669Z,98581.09
2024-04-22T02:01:18.838Z,98587.50
2024-04-22T02:03:49.710Z,98585.56
2024-04-22T02:06:20.411Z,98588.03
2024-04-22T02:08:51.669Z,98591.00
2024-04-22T02:11:23.274Z,98591.47
2024-04-22T02:13:52.676Z,98595.75
2024-04-22T02:16:23.316Z,98589.44
2024-04-22T02:18:54.950Z,98591.53
2024-04-22T02:21:28.174Z,98602.22
2024-04-22T02:24:01.117Z,98596.25
2024-04-22T02:26:29.039Z,98591.25
2024-04-22T02:28:59.770Z,98587.97
2024-04-22T02:31:28.201Z,98596.09
2024-04-22T02:33:59.192Z,98593.22
2024-04-22T02:36:26.996Z,98609.19
2024-04-22T02:39:02.047Z,98593.38
2024-04-22T02:41:31.063Z,98597.50
2024-04-22T02:44:02.820Z,98604.88
2024-04-22T02:46:32.445Z,98600.88
2024-04-22T02:49:03.353Z,98598.84
2024-04-22T02:51:31.750Z,98601.06
2024-04-22T02:54:07.194Z,98595.81
2024-04-22T02:56:35.430Z,98593.63
2024-04-22T02:59:08.222Z,98596.69
2024-04-22T03:01:37.502Z,98598.19
2024-04-22T03:04:10.088Z,98601.78
2024-04-22T03:06:37.969Z,98588.63
2024-04-22T03:09:14.294Z,98599.47
2024-04-22T03:11:42.631Z,98591.56
2024-04-22T03:14:14.013Z,98594.63
2024-04-22T03:16:41.838Z,98590.47
2024-04-22T03:19:12.897Z,98591.59
2024-04-22T03:21:41.701Z,98588.28
2024-04-22T03:24:14.905Z,98588.28
2024-04-22T03:26:43.417Z,98580.66
2024-04-22T03:29:18.641Z,98576.22
2024-04-22T03:31:48.707Z,98577.47
2024-04-22T03:34:20.556Z,98570.44
2024-04-22T03:36:51.375Z,98572.38
2024-04-22T03:39:25.186Z,98575.69
2024-04-22T03:41:56.326Z,98573.88
2024-04-22T03:44:28.794Z,98580.41
2024-04-22T03:47:16.525Z,98585.81
2024-04-22T03:49:57.609Z,98583.03
2024-04-22T03:52:31.946Z,98590.66
2024-04-22T03:55:05.339Z,98592.63
2024-04-22T03:57:35.633Z,98590.81
2024-04-22T04:00:06.353Z,98588.47
2024-04-22T04:02:40.044Z,98598.72
2024-04-22T04:05:13.855Z,98592.34
2024-04-22T04:07:42.076Z,98589.88
2024-04-22T04:10:23.631Z,98590.31
2024-04-22T04:12:53.715Z,98585.72
2024-04-22T04:15:27.430Z,98586.16
2024-04-22T04:17:56.329Z,98580.44
2024-04-22T04:20:27.348Z,98583.38
2024-04-22T04:22:55.815Z,98584.22
2024-04-22T04:25:29.258Z,98576.31
2024-04-22T04:27:58.247Z,98587.88
2024-04-22T04:30:29.547Z,98587.16
2024-04-22T04:32:58.136Z,98587.44
2024-04-22T04:35:30.855Z,98582.78
2024-04-22T04:37:59.059Z,98591.38
2024-04-22T04:40:35.277Z,98586.81
2024-04-22T04:43:07.038Z,98597.22
2024-04-22T04:45:37.477Z,98599.44
2024-04-22T04:48:06.343Z,98587.81
2024-04-22T04:50:37.362Z,98592.91
2024-04-22T04:53:05.998Z,98596.34
2024-04-22T04:55:39.553Z,98599.66
2024-04-22T04:58:08.155Z,98597.72
2024-04-22T05:00:39.482Z,98604.31
2024-04-22T05:03:07.614Z,98600.75
2024-04-22T05:05:39.464Z,98601.44
2024-04-22T05:08:07.942Z,98606.41
2024-04-22T05:10:41.993Z,98608.53
2024-04-22T05:13:11.491Z,98605.69
2024-04-22T05:15:46.917Z,98602.72
2024-04-22T05:18:14.924Z,98599.56
2024-04-22T05:20:46.388Z,98605.59
2024-04-22T05:23:14.883Z,98601.22
2024-04-22T05:25:52.783Z,98604.31
2024-04-22T05:28:24.751Z,98609.81
2024-04-22T05:30:59.643Z,98615.53
2024-04-22T05:33:46.221Z,98605.56
2024-04-22T05:36:17.350Z,98602.66
2024-04-22T05:38:50.470Z,98611.94
2024-04-22T05:41:26.528Z,98608.31
2024-04-22T05:43:59.526Z,98603.59
2024-04-22T05:46:30.084Z,98603.13
2024-04-22T05:49:01.135Z,98605.44
2024-04-22T05:51:34.698Z,98604.94
2024-04-22T05:54:10.400Z,98601.69
2024-04-22T05:56:41.212Z,98612.22
2024-04-22T05:59:11.645Z,98602.75
2024-04-22T06:01:41.375Z,98608.41
2024-04-22T06:04:12.242Z,98608.94
2024-04-22T06:06:40.922Z,98607.88
2024-04-22T06:09:13.619Z,98611.22
2024-04-22T06:11:53.475Z,98612.22
2024-04-22T06:14:33.472Z,98616.81
2024-04-22T06:17:01.548Z,98615.16
2024-04-22T06:19:33.530Z,98613.72
2024-04-22T06:22:01.338Z,98612.09
2024-04-22T06:24:33.569Z,98621.22
2024-04-22T06:27:04.448Z,98616.50
2024-04-22T06:29:36.055Z,98614.72
2024-04-22T06:32:05.920Z,98616.00
2024-04-22T06:34:37.332Z,98609.81
2024-04-22T06:37:08.489Z,98608.81
2024-04-22T06:39:39.963Z,98611.28
2024-04-22T06:42:10.919Z,98612.63
2024-04-22T06:44:41.720Z,98613.63
2024-04-22T06:47:10.758Z,98610.88
2024-04-22T06:49:42.295Z,98601.50
2024-04-22T06:52:10.701Z,98607.13
2024-04-22T06:54:41.985Z,98601.50
2024-04-22T06:57:13.925Z,98611.78
2024-04-22T06:59:45.480Z,98612.28
2024-04-22T07:02:16.445Z,98612.25
2024-04-22T07:04:52.372Z,98600.78
2024-04-22T07:07:22.033Z,98613.19
2024-04-22T07:09:52.559Z,98607.81
2024-04-22T07:12:23.145Z,98606.66
2024-04-22T07:14:56.292Z,98606.16
2024-04-22T07:17:24.866Z,98596.97
2024-04-22T07:19:58.513Z,98601.50
2024-04-22T07:22:33.581Z,98601.81
2024-04-22T07:25:07.837Z,98599.25
2024-04-22T07:27:40.179Z,98608.84
2024-04-22T07:30:11.909Z,98597.97
2024-04-22T07:32:41.107Z,98596.03
2024-04-22T07:35:14.839Z,98590.47
2024-04-22T07:37:47.399Z,98596.06
2024-04-22T07:40:20.629Z,98596.50
2024-04-22T07:42:51.309Z,98588.47
2024-04-22T07:45:25.357Z,98588.63
2024-04-22T07:47:59.487Z,98593.69
2024-04-22T07:50:31.119Z,98582.81
2024-04-22T07:52:59.541Z,98584.09
2024-04-22T07:55:30.920Z,98591.97
2024-04-22T07:58:02.440Z,98586.56
2024-04-22T08:00:35.096Z,98580.06
2024-04-22T08:03:04.076Z,98586.84
2024-04-22T08:05:36.563Z,98583.59
2024-04-22T08:08:08.746Z,98584.31
2024-04-22T08:10:40.935Z,98587.31
2024-04-22T08:13:11.565Z,98575.94
2024-04-22T08:15:42.054Z,98570.19
2024-04-22T08:18:15.301Z,98580.16
2024-04-22T08:20:46.026Z,98574.53
2024-04-22T08:23:13.856Z,98577.00
2024-04-22T08:25:46.578Z,98572.50
2024-04-22T08:28:19.316Z,98574.78
2024-04-22T08:30:50.114Z,98568.22
2024-04-22T08:33:18.095Z,98568.66
2024-04-22T08:35:49.904Z,98571.94
2024-04-22T08:38:18.043Z,98568.28
2024-04-22T08:40:50.364Z,98566.38
2024-04-22T08:43:21.181Z,98563.75
2024-04-22T08:45:51.741Z,98561.03
2024-04-22T08:48:20.760Z,98563.56
2024-04-22T08:50:53.388Z,98565.13
2024-04-22T08:53:22.067Z,98566.31
2024-04-22T08:55:56.673Z,98568.72
2024-04-22T08:58:28.099Z,98562.19
2024-04-22T09:00:58.931Z,98569.88
2024-04-22T09:03:27.190Z,98561.53
2024-04-22T09:05:58.150Z,98568.78
2024-04-22T09:08:26.087Z,98574.84
2024-04-22T09:13:35.707Z,98573.97
2024-04-22T09:16:06.786Z,98570.44
2024-04-22T09:18:37.753Z,98572.34
2024-04-22T09:21:09.597Z,98568.47
2024-04-22T09:23:38.589Z,98571.75
2024-04-22T09:26:10.448Z,98567.97
2024-04-22T09:28:42.729Z,98570.63
2024-04-22T09:31:15.626Z,98562.59
2024-04-22T09:33:47.842Z,98563.06
2024-04-22T09:36:17.320Z,98566.84
2024-04-22T09:38:49.933Z,98562.28
2024-04-22T09:41:21.986Z,98561.25
2024-04-22T09:44:01.197Z,98565.88
2024-04-22T09:46:36.606Z,98559.47
2024-04-22T09:49:09.698Z,98561.09
2024-04-22T09:51:39.439Z,98562.97
2024-04-22T09:54:14.126Z,98562.53
2024-04-22T09:56:42.243Z,98561.41
2024-04-22T09:59:17.115Z,98551.28
2024-04-22T10:01:47.336Z,98553.50
2024-04-22T10:04:18.088Z,98543.53
2024-04-22T10:06:47.370Z,98550.19
2024-04-22T10:09:22.716Z,98552.63
2024-04-22T10:11:54.579Z,98555.44
2024-04-22T10:14:31.921Z,98546.53
2024-04-22T10:17:01.198Z,98550.41
2024-04-22T10:19:33.802Z,98549.28
2024-04-22T10:22:02.140Z,98544.56
2024-04-22T10:24:40.980Z,98537.53
2024-04-22T10:27:12.378Z,98535.38
2024-04-22T10:29:47.376Z,98534.84
2024-04-22T10:32:17.197Z,98535.41
2024-04-22T10:34:48.731Z,98533.38
2024-04-22T10:37:18.644Z,98535.94
2024-04-22T10:39:49.929Z,98539.28
2024-04-22T10:42:19.416Z,98530.22
2024-04-22T10:44:52.868Z,98529.22
2024-04-22T10:47:23.685Z,98535.56
2024-04-22T10:49:55.150Z,98529.22
2024-04-22T10:52:25.759Z,98526.28
2024-04-22T10:54:57.273Z,98529.41
2024-04-22T10:57:25.169Z,98529.19
2024-04-22T11:00:11.830Z,98527.91
2024-04-22T11:02:45.394Z,98525.88
2024-04-22T11:05:20.287Z,98526.19
2024-04-22T11:07:55.205Z,98528.50
2024-04-22T11:10:34.304Z,98527.94
2024-04-22T11:13:18.353Z,98523.16
2024-04-22T11:15:52.550Z,98523.53
2024-04-22T11:18:26.019Z,98530.59
2024-04-22T11:20:56.007Z,98528.59
2024-04-22T11:23:28.036Z,98528.25
2024-04-22T11:25:57.611Z,98519.78
2024-04-22T11:28:28.799Z,98529.19
2024-04-22T11:30:59.761Z,98529.91
2024-04-22T11:33:34.020Z,98523.00
2024-04-22T11:36:02.120Z,98523.13
2024-04-22T11:38:34.033Z,98523.75
2024-04-22T11:41:02.317Z,98515.34
2024-04-22T11:43:33.190Z,98516.56
2024-04-22T11:46:05.880Z,98511.78
2024-04-22T11:48:39.751Z,98509.38
2024-04-22T11:51:10.490Z,98507.31
2024-04-22T11:53:41.892Z,98508.13
2024-04-22T11:56:11.380Z,98498.66
2024-04-22T11:58:42.772Z,98494.56
2024-04-22T12:01:13.925Z,98497.88
2024-04-22T12:03:46.629Z,98491.28
2024-04-22T12:06:16.002Z,98489.00
2024-04-22T12:08:46.890Z,98497.78
2024-04-22T12:11:15.028Z,98502.19
2024-04-22T12:13:45.532Z,98498.88
2024-04-22T12:16:16.637Z,98496.34
2024-04-22T12:18:47.720Z,98493.56
2024-04-22T12:21:15.532Z,98498.88
2024-04-22T12:23:47.091Z,98493.47
2024-04-22T12:26:16.514Z,98481.72
2024-04-22T12:28:47.418Z,98479.19
2024-04-22T12:31:18.587Z,98479.66
2024-04-22T12:33:58.731Z,98472.88
2024-04-22T12:36:37.198Z,98484.19
2024-04-22T12:39:16.795Z,98480.50
2024-04-22T12:41:50.005Z,98475.41
2024-04-22T12:44:20.535Z,98471.75
2024-04-22T12:47:16.566Z,98470.00
2024-04-22T12:50:03.137Z,98466.53
2024-04-22T12:52:34.376Z,98469.00
2024-04-22T12:55:06.378Z,98471.00
2024-04-22T12:57:38.916Z,98466.56
2024-04-22T13:00:15.748Z,98465.34
2024-04-22T13:02:50.444Z,98467.09
2024-04-22T13:05:23.203Z,98457.31
2024-04-22T13:07:54.229Z,98462.28
2024-04-22T13:10:26.109Z,98456.84
2024-04-22T13:12:58.489Z,98467.28
2024-04-22T13:15:29.118Z,98459.50
2024-04-22T13:18:03.325Z,98456.97
2024-04-22T13:20:34.638Z,98451.31
2024-04-22T13:23:08.435Z,98449.41
2024-04-22T13:25:40.018Z,98445.91
2024-04-22T13:28:09.186Z,98436.09
2024-04-22T13:30:44.099Z,98453.13
2024-04-22T13:33:18.487Z,98441.78
2024-04-22T13:35:49.871Z,98440.91
2024-04-22T13:38:19.258Z,98436.06
2024-04-22T13:40:51.876Z,98417.34
2024-04-22T13:43:20.070Z,98433.22
2024-04-22T13:45:51.722Z,98432.41
2024-04-22T13:48:23.691Z,98432.69
2024-04-22T13:50:54.258Z,98427.19
2024-04-22T13:53:26.927Z,98419.47
2024-04-22T13:56:04.814Z,98420.91
2024-04-22T13:58:33.288Z,98420.94
2024-04-22T14:01:04.973Z,98421.34
2024-04-22T14:03:36.512Z,98420.56
2024-04-22T14:06:12.021Z,98414.59
2024-04-22T14:08:43.700Z,98424.78
2024-04-22T14:11:15.485Z,98412.84
2024-04-22T14:13:44.735Z,98407.75
2024-04-22T14:16:16.193Z,98410.63
2024-04-22T14:18:47.706Z,98405.13
2024-04-22T14:21:20.501Z,98403.31
2024-04-22T14:23:50.195Z,98399.16
2024-04-22T14:26:23.253Z,98398.97
2024-04-22T14:28:58.399Z,98406.19
2024-04-22T14:31:31.524Z,98404.09
2024-04-22T14:34:05.335Z,98401.44
2024-04-22T14:36:39.618Z,98394.72
2024-04-22T14:39:09.696Z,98403.44
2024-04-22T14:41:45.223Z,98397.59
2024-04-22T14:44:14.245Z,98389.78
2024-04-22T14:46:46.678Z,98397.03
2024-04-22T14:49:20.326Z,98384.91
2024-04-22T14:51:52.263Z,98391.59
2024-04-22T14:54:22.163Z,98391.34
2024-04-22T14:56:59.080Z,98390.56
2024-04-22T14:59:28.062Z,98378.97
2024-04-22T15:01:59.658Z,98389.50
2024-04-22T15:04:30.873Z,98384.97
2024-04-22T15:07:04.491Z,98385.81
2024-04-22T15:09:33.410Z,98389.47
2024-04-22T15:12:04.643Z,98391.78
2024-04-22T15:14:52.343Z,98387.84
2024-04-22T15:17:23.483Z,98390.13
2024-04-22T15:19:54.757Z,98386.63
2024-04-22T15:22:25.454Z,98383.97
2024-04-22T15:24:54.809Z,98385.59
2024-04-22T15:27:27.784Z,98386.00
2024-04-22T15:29:56.141Z,98387.25
2024-04-22T15:32:32.781Z,98380.47
2024-04-22T15:35:06.780Z,98380.25
2024-04-22T15:37:37.615Z,98369.94
2024-04-22T15:40:08.027Z,98363.38
2024-04-22T15:42:39.886Z,98372.59
2024-04-22T15:45:08.189Z,98363.50
2024-04-22T15:47:40.301Z,98377.25
2024-04-22T15:50:13.003Z,98371.47
2024-04-22T15:52:43.926Z,98366.38
2024-04-22T15:55:12.671Z,98373.66
2024-04-22T15:57:44.001Z,98356.69
2024-04-22T16:00:16.347Z,98364.34
2024-04-22T16:02:51.007Z,98365.50
2024-04-22T16:05:24.554Z,98356.16
2024-04-22T16:07:55.023Z,98358.75
2024-04-22T16:10:23.989Z,98357.69
2024-04-22T16:13:08.360Z,98355.81
2024-04-22T16:15:36.551Z,98359.19
2024-04-22T16:18:08.955Z,98354.59
2024-04-22T16:20:49.437Z,98348.69
2024-04-22T16:23:21.127Z,98343.78
2024-04-22T16:25:50.481Z,98343.56
2024-04-22T16:28:25.045Z,98352.28
2024-04-22T16:30:54.131Z,98351.00
2024-04-22T16:33:27.589Z,98346.03
2024-04-22T16:35:58.026Z,98343.91
2024-04-22T16:38:32.697Z,98342.84
2024-04-22T16:41:00.548Z,98337.50
2024-04-22T16:43:32.465Z,98342.00
2024-04-22T16:46:00.674Z,98345.44
2024-04-22T16:48:31.781Z,98345.63
2024-04-22T16:51:02.895Z,98357.25
2024-04-22T16:53:33.456Z,98346.19
2024-04-22T16:56:02.467Z,98366.03
2024-04-22T16:58:34.584Z,98358.69
2024-04-22T17:01:03.238Z,98358.47
2024-04-22T17:03:35.669Z,98353.56
2024-04-22T17:06:11.715Z,98363.81
2024-04-22T17:08:44.746Z,98359.91
2024-04-22T17:11:12.706Z,98363.63
2024-04-22T17:13:43.426Z,98350.69
2024-04-22T17:16:11.472Z,98365.25
2024-04-22T17:18:43.314Z,98361.34
2024-04-22T17:21:16.699Z,98354.38
2024-04-22T17:23:47.608Z,98365.47
2024-04-22T17:26:19.121Z,98365.81
2024-04-22T17:28:52.413Z,98361.78
2024-04-22T17:31:23.581Z,98364.66
2024-04-22T17:33:55.310Z,98346.94
2024-04-22T17:36:27.373Z,98353.28
2024-04-22T17:38:58.683Z,98354.94
2024-04-22T17:41:27.543Z,98348.78
2024-04-22T17:43:58.824Z,98354.50
2024-04-22T17:46:29.243Z,98354.88
2024-04-22T17:49:00.928Z,98353.59
2024-04-22T17:51:31.495Z,98355.44
2024-04-22T17:54:02.929Z,98355.00
2024-04-22T17:56:34.376Z,98355.88
2024-04-22T17:59:05.817Z,98356.00
2024-04-22T18:01:36.327Z,98354.59
2024-04-22T18:04:09.102Z,98360.06
2024-04-22T18:06:39.531Z,98372.00
2024-04-22T18:09:10.735Z,98365.19
2024-04-22T18:11:40.015Z,98367.97
2024-04-22T18:14:11.599Z,98378.16
2024-04-22T18:16:44.449Z,98371.16
2024-04-22T18:19:17.460Z,98377.41
2024-04-22T18:21:50.761Z,98386.44
2024-04-22T18:24:29.035Z,98384.31
2024-04-22T18:26:57.536Z,98381.38
2024-04-22T18:29:29.435Z,98381.16
2024-04-22T18:31:59.521Z,98385.63
2024-04-22T18:34:31.284Z,98380.19
2024-04-22T18:37:04.239Z,98379.66
2024-04-22T18:39:35.921Z,98393.88
2024-04-22T18:42:05.398Z,98388.31
2024-04-22T18:44:36.241Z,98388.81
2024-04-22T18:47:06.555Z,98398.75
2024-04-22T18:49:40.143Z,98399.50
2024-04-22T18:52:11.201Z,98391.06
2024-04-22T18:54:43.390Z,98399.38
2024-04-22T18:57:12.391Z,98403.88
2024-04-22T18:59:44.316Z,98400.19
2024-04-22T19:02:15.852Z,98401.59
2024-04-22T19:04:45.102Z,98409.31
2024-04-22T19:07:19.869Z,98411.72
2024-04-22T19:09:48.282Z,98423.00
2024-04-22T19:12:20.384Z,98412.91
2024-04-22T19:14:49.306Z,98412.84
2024-04-22T19:17:21.174Z,98413.31
2024-04-22T19:19:49.270Z,98407.06
2024-04-22T19:22:22.674Z,98411.69
2024-04-22T19:24:52.754Z,98414.44
2024-04-22T19:27:24.235Z,98422.28
2024-04-22T19:29:52.735Z,98424.41
2024-04-22T19:32:24.623Z,98422.94
2024-04-22T19:34:53.818Z,98427.97
2024-04-22T19:37:28.422Z,98430.06
2024-04-22T19:40:01.324Z,98431.34
2024-04-22T19:42:33.803Z,98439.88
2024-04-22T19:45:11.406Z,98440.88
2024-04-22T19:47:43.578Z,98437.03
2024-04-22T19:50:11.556Z,98440.56
2024-04-22T19:52:45.072Z,98435.63
2024-04-22T19:55:14.610Z,98446.53
2024-04-22T19:57:45.296Z,98443.59
2024-04-22T20:00:15.644Z,98441.41
2024-04-22T20:02:51.233Z,98443.75
2024-04-22T20:05:19.476Z,98451.47
2024-04-22T20:07:54.401Z,98446.41
2024-04-22T20:10:26.235Z,98449.59
2024-04-22T20:12:56.721Z,98455.44
2024-04-22T20:15:44.815Z,98447.66
2024-04-22T20:18:42.687Z,98443.00
2024-04-22T20:21:11.217Z,98441.59
2024-04-22T20:23:44.640Z,98451.00
2024-04-22T20:26:12.593Z,98450.91
2024-04-22T20:28:44.387Z,98448.94
2024-04-22T20:31:18.325Z,98441.16
2024-04-22T20:33:50.268Z,98438.22
2024-04-22T20:36:22.399Z,98439.56
2024-04-22T20:39:03.105Z,98438.78
2024-04-22T20:41:34.774Z,98444.13
2024-04-22T20:44:05.624Z,98443.50
2024-04-22T20:46:34.946Z,98446.78
2024-04-22T20:49:06.677Z,98450.13
2024-04-22T20:51:35.362Z,98451.84
2024-04-22T20:54:11.172Z,98452.84
2024-04-22T20:56:39.414Z,98456.84
2024-04-22T20:59:10.919Z,98449.25
2024-04-22T21:01:39.594Z,98454.38
2024-04-22T21:04:10.223Z,98458.38
2024-04-22T21:06:39.119Z,98447.59
2024-04-22T21:09:15.592Z,98447.78
2024-04-22T21:11:47.455Z,98452.44
2024-04-22T21:14:19.089Z,98450.31
2024-04-22T21:16:52.769Z,98447.81
2024-04-22T21:19:23.458Z,98444.72
2024-04-22T21:21:52.494Z,98442.56
2024-04-22T21:24:26.121Z,98439.13
2024-04-22T21:26:58.306Z,98445.25
2024-04-22T21:29:33.809Z,98445.78
2024-04-22T21:32:01.783Z,98459.31
2024-04-22T21:34:33.238Z,98448.09
2024-04-22T21:37:01.673Z,98450.25
2024-04-22T21:39:35.812Z,98457.69
2024-04-22T21:42:04.558Z,98453.41
2024-04-22T21:44:34.925Z,98455.06
2024-04-22T21:47:04.309Z,98448.63
2024-04-22T21:49:34.973Z,98442.19
2024-04-22T21:52:04.300Z,98458.88
2024-04-22T21:54:37.364Z,98450.28
2024-04-22T21:57:24.655Z,98456.41
2024-04-22T22:00:33.112Z,98456.56
2024-04-22T22:03:39.021Z,98448.63
2024-04-22T22:06:48.792Z,98448.16
2024-04-22T22:09:25.495Z,98451.44
2024-04-22T22:11:56.217Z,98451.63
2024-04-22T22:14:26.042Z,98449.63
2024-04-22T22:16:56.780Z,98454.09
2024-04-22T22:19:25.135Z,98453.94
2024-04-22T22:21:57.617Z,98460.38
2024-04-22T22:24:36.647Z,98455.59
2024-04-22T22:27:21.394Z,98448.13
2024-04-22T22:29:49.220Z,98452.59
2024-04-22T22:32:22.458Z,98455.06
2024-04-22T22:34:50.488Z,98448.31
2024-04-22T22:37:21.335Z,98449.63
2024-04-22T22:39:52.907Z,98455.91
2024-04-22T22:42:26.456Z,98450.63
2024-04-22T22:44:55.514Z,98453.09
2024-04-22T22:47:29.216Z,98446.97
2024-04-22T22:49:58.478Z,98443.66
2024-04-22T22:52:29.130Z,98441.84
2024-04-22T22:55:00.265Z,98442.66
2024-04-22T22:57:33.639Z,98444.47
2024-04-22T23:00:05.508Z,98439.69
2024-04-22T23:02:36.508Z,98437.53
2024-04-22T23:05:06.293Z,98431.75
2024-04-22T23:07:36.793Z,98443.94
2024-04-22T23:10:07.541Z,98435.69
2024-04-22T23:12:38.055Z,98433.00
2024-04-22T23:15:08.037Z,98429.72
2024-04-22T23:17:39.559Z,98437.44
2024-04-22T23:20:09.215Z,98428.38
2024-04-22T23:22:39.907Z,98426.06
2024-04-22T23:25:12.489Z,98420.97
2024-04-22T23:27:42.836Z,98419.31
2024-04-22T23:30:11.443Z,98417.97
2024-04-22T23:32:41.890Z,98423.41
2024-04-22T23:35:10.665Z,98433.81
2024-04-22T23:37:41.325Z,98429.84
2024-04-22T23:40:12.328Z,98430.97
2024-04-22T23:42:42.963Z,98428.19
2024-04-22T23:45:10.863Z,98418.09
2024-04-22T23:47:43.611Z,98410.34
2024-04-22T23:50:11.525Z,98412.16
2024-04-22T23:52:43.011Z,98418.59
2024-04-22T23:55:14.870Z,98416.59
2024-04-22T23:57:45.299Z,98413.13
